Aeroporto :
LOGIN :

Iscrizione | Disclaimer

   EN    FR    IT 

 










Sommario :    VFR   VFR Marginale   IFR   IFR Intensivo   IFR Molto Intensivo
Visibilità : 
Base nubi : 
>= 8 km
>= 3000ft
5 / 8 km
1000 / 3000 ft
1500m / 5 km
500 / 1000 ft
800 / 1500m
200 / 500 ft
< 800m
< 200 ft
Simboli :   Temporali  Nebbia  Neve Forte  Precipitazioni Forti  Vento > 20 kt
SIGMETs :   Varie  Temporali  Ghiacco  Turbolenza  Onda orograficha  Ceneri Vulcaniche







- Altitudine del aeroporto : 2096 ft
- Codice IATA : AUR
- Carte del aeroporto


LFLW - Aurillac

ULTIMO METAR :
  • 181700Z AUTO 23006KT 9999 SCT052 25/13 Q1019 TEMPO FEW055CB

METARs OBSOLETI :
  • 181630Z AUTO 23007KT 9999 TS SCT052/// ///CB 25/13 Q1019 BECMG NSW
  • 181600Z AUTO 19008KT 9999 FEW052 26/13 Q1019 TEMPO FEW055CB
  • 181530Z AUTO 21009KT 170V240 9999 BKN056 BKN066 BKN076 26/13 Q1019 TEMPO FEW055CB
  • 181500Z AUTO 21006KT 150V250 9999 BKN054 27/13 Q1019 TEMPO FEW055CB
  • 181430Z AUTO 20007KT 160V240 9999 ///CB 26/13 Q1019 NOSIG

Previsioni scadute.
Nessun NOTAM noto per questo aeroporto.
1 SIGMET conosciuto per la FIR Bordeaux (LFBB) :
 
Temporali affogati
LFBB SIGMET 2 VALID 181620/181800 LFPW
LFBB BORDEAUX FIR/UIR EMBD TS OBS WI N4615 E00300 - N4445 E00245 - N4530 E00200 - N4615 E00300 TOP FL340 STNR NC=



MetMap, La meteo Aeronautica in un colpo d'occhio ! - Copyright ORBIFLY Dicembre 2007 - Disclaimer

ORBIFLY MET'MAP TEAM :

Programmazione e sviluppo : Alexandra Zaïnal
Concezione e sviluppo : Baudouin d'Aumeries
Co-Programmazione e sviluppo : Marc-Olivier Méhu
Supporto tecnico e logistico : Manuel Goepfert
Aiuto per la traduzione : Arnaldo La Scala

Contatto : metmap@orbifly.com




FONTI E CREDITI :

   NOAA